Time;durP1;ratioP1;P1;durP2;ratioP2;P2;SDS_P1;SDS_P2;PMS_P1;PMS_P2;Temp;Humidity;BMP_temperature;BMP_pressure;BME280_temperature;BME280_humidity;BME280_pressure;Samples;Min_cycle;Max_cycle;Signal;HPM_P1;HPM_P2
2023/06/21 07:10:26;;;;;;;25.70;24.10;;;34.60;98.90;;;;;;6216514;22;20021;-92
2023/06/21 09:50:56;;;;;;;25.70;23.60;;;33.30;94.30;;;;;;6147768;23;20801;31
2023/06/21 09:53:29;;;;;;;24.88;23.33;;;33.30;94.80;;;;;;5902112;24;20028;-93
2023/06/21 09:56:01;;;;;;;25.65;24.05;;;33.20;95.40;;;;;;5923684;24;20040;-94
2023/06/21 09:58:34;;;;;;;25.13;23.35;;;33.20;94.30;;;;;;5923570;24;20040;-94
2023/06/21 10:01:15;;;;;;;25.85;24.13;;;33.40;94.60;;;;;;5947833;23;20014;-93
2023/06/21 10:03:47;;;;;;;26.13;24.20;;;33.80;94.70;;;;;;6044776;23;20018;-94
2023/06/21 10:06:16;;;;;;;26.10;24.25;;;33.50;95.00;;;;;;6044915;23;20011;-95
2023/06/21 10:08:54;;;;;;;26.02;24.33;;;33.60;95.70;;;;;;6020167;23;20003;-94
2023/06/21 10:11:22;;;;;;;26.58;24.73;;;33.60;94.60;;;;;;6043476;23;20007;-93
2023/06/21 10:13:49;;;;;;;25.63;23.92;;;33.30;95.20;;;;;;6028445;23;20007;-93
2023/06/21 10:16:18;;;;;;;26.00;24.30;;;32.90;95.50;;;;;;6045244;23;20011;-93
2023/06/21 10:21:28;;;;;;;26.70;24.65;;;33.00;95.70;;;;;;6077616;23;20227;-94
2023/06/21 10:23:57;;;;;;;25.45;23.85;;;33.20;96.30;;;;;;6108457;23;20045;-93
2023/06/21 10:26:29;;;;;;;25.88;24.13;;;33.40;96.00;;;;;;6108596;23;20022;-94
2023/06/21 10:29:01;;;;;;;26.20;24.30;;;33.10;96.00;;;;;;6108633;23;20009;-94
2023/06/21 10:31:32;;;;;;;25.67;24.08;;;33.30;95.70;;;;;;6108344;23;20012;-92
2023/06/21 10:34:04;;;;;;;25.88;24.05;;;32.80;96.30;;;;;;6108305;23;20436;-93
2023/06/21 10:36:35;;;;;;;26.85;25.08;;;33.00;96.50;;;;;;6108710;23;20059;-93
2023/06/21 10:39:12;;;;;;;25.50;23.80;;;32.90;96.00;;;;;;6108817;23;20013;-94
2023/06/21 10:41:40;;;;;;;26.10;24.50;;;33.00;96.80;;;;;;6108506;23;20420;-93
2023/06/21 10:44:06;;;;;;;25.60;23.85;;;33.00;96.30;;;;;;6108742;23;20010;-94
2023/06/21 10:46:35;;;;;;;24.85;23.35;;;32.90;96.30;;;;;;6108120;23;20009;-93
2023/06/21 10:49:02;;;;;;;25.63;24.00;;;32.90;96.50;;;;;;6108366;23;20005;-94
2023/06/21 10:51:32;;;;;;;25.80;23.85;;;32.90;96.30;;;;;;6107821;23;20029;-92
2023/06/21 10:54:03;;;;;;;26.88;24.50;;;32.80;96.80;;;;;;6108314;23;20010;-94
2023/06/21 10:56:30;;;;;;;26.45;24.55;;;33.00;96.20;;;;;;6108514;23;20080;-93
2023/06/21 10:58:56;;;;;;;26.98;25.08;;;32.80;96.20;;;;;;6109408;23;20060;-93
2023/06/21 11:01:22;;;;;;;25.77;24.15;;;32.60;96.30;;;;;;6108270;23;20444;-92
2023/06/21 11:03:55;;;;;;;25.83;24.02;;;32.80;96.50;;;;;;6109027;23;20002;-93
2023/06/21 11:09:11;;;;;;;26.35;24.42;;;32.90;95.80;;;;;;6101204;23;20471;-93
2023/06/21 11:11:49;;;;;;;26.52;24.60;;;32.70;96.20;;;;;;6132957;23;20010;-93
2023/06/21 11:14:48;;;;;;;26.40;24.45;;;32.90;96.20;;;;;;6112457;23;20013;-93
2023/06/21 11:17:24;;;;;;;26.25;24.52;;;32.90;96.30;;;;;;6137348;23;20499;-94
2023/06/21 11:19:50;;;;;;;27.10;24.98;;;32.80;95.90;;;;;;6112982;23;20353;-94
2023/06/21 11:22:26;;;;;;;26.42;24.77;;;32.90;96.20;;;;;;6128125;23;20013;-93
2023/06/21 11:25:17;;;;;;;26.60;24.80;;;32.80;95.80;;;;;;6158658;23;20025;-92
2023/06/21 11:31:46;;;;;;;26.90;24.98;;;32.80;94.70;;;;;;6144427;23;20065;-93
2023/06/21 11:34:56;;;;;;;27.23;24.88;;;33.20;94.80;;;;;;6136049;23;20010;-93
2023/06/21 11:38:22;;;;;;;27.42;25.40;;;33.20;94.90;;;;;;6138187;23;20084;-93
2023/06/21 12:13:55;;;;;;;28.67;26.45;;;32.80;95.90;;;;;;6066533;23;20098;-92
2023/06/21 12:35:09;;;;;;;25.80;24.15;;;32.60;95.80;;;;;;6143277;23;20012;31
2023/06/21 13:11:09;;;;;;;26.60;24.83;;;33.00;94.50;;;;;;6150496;23;20104;-92
2023/06/21 13:13:38;;;;;;;25.50;23.80;;;32.90;94.60;;;;;;6110108;23;20013;-92
2023/06/21 13:16:05;;;;;;;26.25;24.65;;;33.00;95.00;;;;;;6131829;23;20339;-92
2023/06/21 13:18:33;;;;;;;26.25;24.55;;;32.80;94.10;;;;;;6132739;23;20053;-93
2023/06/21 13:21:09;;;;;;;25.65;24.15;;;32.80;93.60;;;;;;6131300;23;20375;-91
2023/06/21 13:23:36;;;;;;;25.42;23.92;;;32.70;93.90;;;;;;6106998;23;20064;-91
2023/06/21 13:26:02;;;;;;;26.55;24.83;;;32.60;94.10;;;;;;6106996;23;20009;-92
2023/06/21 13:28:31;;;;;;;25.63;24.02;;;32.40;94.10;;;;;;6107292;23;20005;-92
2023/06/21 13:30:58;;;;;;;26.75;24.60;;;32.30;92.80;;;;;;6106245;23;20060;-92
2023/06/21 13:33:24;;;;;;;25.88;24.10;;;32.30;93.20;;;;;;6107379;23;20001;-91
2023/06/21 13:35:52;;;;;;;26.63;24.92;;;32.40;93.40;;;;;;6106838;23;20037;-91
2023/06/21 13:38:20;;;;;;;25.70;24.08;;;32.60;93.50;;;;;;6106952;23;20470;-91
2023/06/21 13:40:48;;;;;;;25.73;24.13;;;32.80;93.10;;;;;;6107478;23;20443;-92
2023/06/21 13:43:15;;;;;;;26.02;24.23;;;33.00;93.30;;;;;;6107006;23;20009;-93
2023/06/21 13:45:41;;;;;;;24.75;23.05;;;32.90;93.20;;;;;;6107076;23;20780;-92
2023/06/21 13:48:11;;;;;;;25.70;24.05;;;32.70;93.60;;;;;;6107154;23;20073;-92
2023/06/21 13:50:37;;;;;;;25.73;24.02;;;32.60;93.70;;;;;;6107206;23;20021;-91
2023/06/21 13:53:04;;;;;;;25.52;23.92;;;32.70;93.80;;;;;;6107259;23;20017;-93
2023/06/21 13:55:30;;;;;;;25.77;23.98;;;32.30;93.60;;;;;;6107191;23;20012;-91
2023/06/21 13:57:59;;;;;;;26.88;24.88;;;32.40;94.10;;;;;;6107237;23;20014;-93
2023/06/21 14:00:25;;;;;;;26.42;24.67;;;32.30;94.30;;;;;;6107215;23;20017;-91
2023/06/21 14:02:52;;;;;;;27.33;25.20;;;32.30;95.00;;;;;;6106901;23;20045;-93
2023/06/21 14:05:21;;;;;;;26.17;24.30;;;32.10;94.70;;;;;;6106954;23;20009;-92
2023/06/21 14:08:31;;;;;;;26.17;24.17;;;32.00;95.10;;;;;;6108733;23;20009;-92
2023/06/21 14:10:57;;;;;;;26.45;24.48;;;31.90;95.10;;;;;;6112069;23;20404;-93
2023/06/21 14:35:27;;;;;;;;;;;;;;;;;;;;;
2023/06/21 14:38:27;;;;;;;25.30;23.77;;;32.00;92.90;;;;;;6045374;23;20038;-93
2023/06/21 14:41:07;;;;;;;25.65;24.05;;;32.40;93.20;;;;;;6039357;23;20412;-93
2023/06/21 14:43:46;;;;;;;26.58;24.45;;;32.10;91.80;;;;;;6016895;23;20489;-92
2023/06/21 14:46:14;;;;;;;26.58;24.48;;;31.80;93.30;;;;;;6016046;23;20003;-92
2023/06/21 14:48:41;;;;;;;26.13;24.55;;;31.80;94.20;;;;;;6014929;23;20011;-92
2023/06/21 14:51:12;;;;;;;26.15;24.45;;;31.90;93.30;;;;;;6014927;23;19999;-92
2023/06/21 14:53:45;;;;;;;26.17;24.35;;;31.90;93.60;;;;;;6015243;23;20022;-92
2023/06/21 15:01:54;;;;;;;25.38;23.80;;;31.80;92.10;;;;;;6216703;23;20070;-93
2023/06/21 15:04:20;;;;;;;25.23;23.63;;;31.60;91.90;;;;;;6190236;23;20008;-92
2023/06/21 15:06:49;;;;;;;25.25;23.40;;;31.60;92.30;;;;;;6165938;23;20074;-93
2023/06/21 15:09:16;;;;;;;24.60;23.08;;;31.50;92.20;;;;;;6190405;23;20033;-92
2023/06/21 15:11:56;;;;;;;24.45;22.98;;;31.50;92.00;;;;;;6166846;23;20390;-92
2023/06/21 15:14:43;;;;;;;25.30;23.80;;;31.40;91.70;;;;;;6166063;23;20013;-93
2023/06/21 15:17:32;;;;;;;25.27;23.75;;;31.20;92.20;;;;;;6168817;23;20024;-92
2023/06/21 15:20:38;;;;;;;25.35;23.58;;;31.20;91.50;;;;;;6045813;23;20040;-93
2023/06/21 15:23:16;;;;;;;25.02;23.42;;;31.10;91.90;;;;;;5933945;24;20361;-93
2023/06/21 15:25:58;;;;;;;25.10;23.40;;;31.20;92.30;;;;;;5938187;24;20083;-93
2023/06/21 15:31:16;;;;;;;26.30;24.27;;;31.10;92.50;;;;;;6155405;23;20042;-92
2023/06/21 15:33:42;;;;;;;25.73;23.98;;;31.30;91.70;;;;;;6133824;23;20009;-94
2023/06/21 15:36:09;;;;;;;24.95;23.35;;;31.30;91.60;;;;;;6138819;23;20002;-92
2023/06/21 15:38:38;;;;;;;25.45;23.85;;;31.30;91.80;;;;;;6132672;23;20021;-94
2023/06/21 15:41:09;;;;;;;27.10;24.90;;;31.40;92.20;;;;;;6138498;23;20024;-93
2023/06/21 15:44:25;;;;;;;26.33;24.63;;;31.30;92.60;;;;;;6150766;23;20013;-93
2023/06/21 15:47:11;;;;;;;27.40;25.33;;;31.40;92.40;;;;;;6168844;23;20091;-92
2023/06/21 16:02:01;;;;;;;24.77;23.33;;;30.70;93.30;;;;;;5919744;24;20084;-93
2023/06/21 16:04:48;;;;;;;26.08;24.38;;;30.50;93.50;;;;;;5777533;24;20016;-93
2023/06/21 16:12:44;;;;;;;26.00;24.33;;;30.50;93.40;;;;;;6129206;23;20022;-93
2023/06/21 16:15:11;;;;;;;25.55;23.90;;;30.30;93.40;;;;;;6105743;23;20010;-93
2023/06/21 16:17:38;;;;;;;25.15;23.45;;;30.50;93.20;;;;;;6104011;23;20018;-93
2023/06/21 16:20:05;;;;;;;24.70;23.17;;;30.40;93.40;;;;;;6103078;23;20006;-93
2023/06/21 16:22:34;;;;;;;24.08;22.67;;;30.30;93.50;;;;;;6103558;23;20014;-94
2023/06/21 16:25:03;;;;;;;25.08;23.48;;;30.20;94.20;;;;;;6102943;23;20010;-92
2023/06/21 16:27:30;;;;;;;24.23;22.63;;;30.30;94.50;;;;;;6102403;23;20045;-92
2023/06/21 16:30:00;;;;;;;24.83;23.13;;;30.20;94.10;;;;;;6103644;23;20013;-93
2023/06/21 16:33:06;;;;;;;25.83;24.13;;;30.20;94.60;;;;;;6104291;23;20016;-92
2023/06/21 16:35:32;;;;;;;25.25;23.65;;;30.10;94.40;;;;;;6077038;23;20100;-93
2023/06/21 16:37:58;;;;;;;24.15;22.65;;;30.00;94.40;;;;;;6102481;23;20022;-92
2023/06/21 16:40:25;;;;;;;25.45;23.58;;;30.00;94.80;;;;;;6102372;23;20594;-93
2023/06/21 16:43:38;;;;;;;24.65;23.25;;;30.00;94.60;;;;;;6106245;23;20033;-94
2023/06/21 16:50:16;;;;;;;25.65;23.83;;;29.80;94.90;;;;;;6109713;23;21768;-93
2023/06/21 17:02:52;;;;;;;24.88;23.35;;;29.50;95.90;;;;;;6159872;23;20045;31
2023/06/21 17:05:45;;;;;;;24.45;22.95;;;29.50;96.10;;;;;;6078700;23;20020;-91
2023/06/21 17:08:14;;;;;;;24.52;22.25;;;29.30;96.20;;;;;;6223835;23;20015;-91
2023/06/21 17:10:40;;;;;;;23.55;22.08;;;29.20;96.60;;;;;;6195953;23;20015;-92
2023/06/21 17:13:12;;;;;;;23.40;22.00;;;29.20;96.50;;;;;;6189606;23;20004;-93
2023/06/21 17:15:39;;;;;;;24.88;23.25;;;29.20;96.40;;;;;;6167144;23;20040;-92
2023/06/21 17:28:06;;;;;;;24.60;23.00;;;28.80;97.50;;;;;;6214009;23;20028;-92
2023/06/21 17:30:39;;;;;;;24.85;23.33;;;28.70;97.60;;;;;;6169081;23;20010;-92
2023/06/21 17:33:23;;;;;;;25.25;23.48;;;28.50;97.40;;;;;;6166743;23;20034;-92
2023/06/21 17:36:52;;;;;;;;;;;;;;;;;;;;;
2023/06/21 17:39:56;;;;;;;24.30;22.83;;;28.30;97.70;;;;;;6207648;23;20035;-92
2023/06/21 17:47:37;;;;;;;;;;;;;;;;;;;;;
2023/06/21 17:50:29;;;;;;;24.10;22.45;;;28.20;97.80;;;;;;6159769;23;20009;-93
2023/06/21 17:54:03;;;;;;;24.73;23.05;;;28.00;98.10;;;;;;6163537;23;20091;-93
2023/06/21 18:06:36;;;;;;;24.17;22.48;;;27.70;99.30;;;;;;6193104;23;20032;-91
2023/06/21 18:09:03;;;;;;;24.33;22.52;;;27.60;99.40;;;;;;6165909;23;20415;-92
2023/06/21 18:11:30;;;;;;;23.77;22.27;;;27.50;99.40;;;;;;6165584;23;20446;-92
2023/06/21 18:21:20;;;;;;;23.05;21.67;;;27.40;99.70;;;;;;6191574;23;20104;-93
2023/06/21 18:23:58;;;;;;;23.83;22.35;;;27.30;99.90;;;;;;6168469;23;20009;-93
2023/06/21 18:26:37;;;;;;;23.70;22.20;;;27.30;99.90;;;;;;6167913;23;20005;-91
2023/06/21 18:29:24;;;;;;;24.38;22.70;;;27.20;99.90;;;;;;6166580;23;20009;-93
2023/06/21 18:31:56;;;;;;;23.77;22.27;;;27.20;99.90;;;;;;6069271;23;20043;-93
2023/06/21 18:34:24;;;;;;;24.00;22.20;;;27.20;99.90;;;;;;6019980;23;20015;-92
2023/06/21 18:36:53;;;;;;;24.92;23.00;;;27.20;99.90;;;;;;6020127;23;20094;-92
2023/06/21 18:39:23;;;;;;;23.30;21.77;;;27.10;99.90;;;;;;6019382;23;20007;-93
2023/06/21 18:41:49;;;;;;;23.45;21.85;;;27.10;99.90;;;;;;6020902;23;20006;-90
2023/06/21 18:44:16;;;;;;;23.33;21.63;;;27.00;99.90;;;;;;6020042;23;20018;-90
2023/06/21 18:46:43;;;;;;;23.48;21.88;;;26.90;99.90;;;;;;6019604;23;20337;-92
2023/06/21 18:49:09;;;;;;;23.10;21.60;;;26.80;99.90;;;;;;6019548;23;20505;-92
2023/06/21 18:51:35;;;;;;;23.63;21.98;;;26.80;99.90;;;;;;6021888;23;20007;-91
2023/06/21 18:54:07;;;;;;;22.35;21.05;;;26.70;99.90;;;;;;6021643;23;20006;-91
2023/06/21 18:56:36;;;;;;;23.52;22.02;;;26.60;99.90;;;;;;6018152;23;20015;-90
2023/06/21 18:59:04;;;;;;;23.90;21.80;;;26.50;99.90;;;;;;6021422;23;20042;-90
2023/06/21 19:01:31;;;;;;;23.25;21.65;;;26.40;99.90;;;;;;6037794;23;20023;-92
2023/06/21 19:04:00;;;;;;;23.45;21.65;;;26.40;99.90;;;;;;6167452;23;20024;-90
2023/06/21 19:06:28;;;;;;;22.60;21.10;;;26.30;99.90;;;;;;6167322;23;20016;-91
2023/06/21 19:08:54;;;;;;;23.10;21.40;;;26.20;99.90;;;;;;6167313;23;20083;-92
2023/06/21 19:11:21;;;;;;;22.33;20.83;;;26.20;99.90;;;;;;6167254;23;20012;-92
2023/06/21 19:13:47;;;;;;;22.10;20.65;;;26.10;99.90;;;;;;6167001;23;20011;-91
2023/06/21 19:16:14;;;;;;;22.30;20.75;;;26.10;99.90;;;;;;6191515;23;20024;-93
2023/06/21 19:18:41;;;;;;;22.23;20.75;;;26.00;99.90;;;;;;6161595;23;20021;-91
2023/06/21 19:21:08;;;;;;;21.23;19.88;;;26.00;99.90;;;;;;6162002;23;20028;-90
2023/06/21 19:23:34;;;;;;;23.30;21.45;;;25.90;99.90;;;;;;6161919;23;20013;-91
2023/06/21 19:26:01;;;;;;;22.05;20.55;;;25.90;99.90;;;;;;6162031;23;20009;-91
2023/06/21 19:28:27;;;;;;;22.25;20.75;;;25.80;99.90;;;;;;6161957;23;20016;-91
2023/06/21 19:30:54;;;;;;;21.00;19.45;;;25.90;99.90;;;;;;6161621;23;20004;-90
2023/06/21 19:33:20;;;;;;;21.63;20.23;;;25.80;99.90;;;;;;6162327;23;20004;-90
2023/06/21 19:35:47;;;;;;;22.08;20.48;;;25.80;99.90;;;;;;6161793;23;20331;-90
2023/06/21 19:38:13;;;;;;;21.38;19.98;;;25.80;99.90;;;;;;6161949;23;20017;-91
2023/06/21 19:40:43;;;;;;;21.42;19.92;;;25.80;99.90;;;;;;6161692;23;20439;-93
2023/06/21 19:43:12;;;;;;;21.90;20.13;;;25.70;99.90;;;;;;6161679;23;20067;-89
2023/06/21 19:45:39;;;;;;;21.80;20.30;;;25.60;99.90;;;;;;6162353;23;20001;-90
2023/06/21 19:48:07;;;;;;;22.20;20.13;;;25.60;99.90;;;;;;6161650;23;20009;-90
2023/06/21 19:50:35;;;;;;;21.10;19.67;;;25.50;99.90;;;;;;6161574;23;20013;-90
2023/06/21 19:53:01;;;;;;;20.98;19.48;;;25.50;99.90;;;;;;6162137;23;20005;-90
2023/06/21 19:55:28;;;;;;;21.02;19.42;;;25.60;99.90;;;;;;6161638;23;20088;-91
2023/06/21 19:57:55;;;;;;;21.50;19.75;;;25.60;99.90;;;;;;6161541;23;20020;-93
2023/06/21 20:00:24;;;;;;;20.90;19.33;;;25.50;99.90;;;;;;6161334;23;20009;-90
2023/06/21 20:02:51;;;;;;;20.35;18.95;;;25.50;99.90;;;;;;6161652;23;20009;-91
2023/06/21 20:05:18;;;;;;;20.67;19.00;;;25.50;99.90;;;;;;6161685;23;20017;-92
2023/06/21 20:07:46;;;;;;;21.02;19.23;;;25.40;99.90;;;;;;6161670;23;20012;-91
2023/06/21 20:10:12;;;;;;;20.70;19.08;;;25.30;99.90;;;;;;6161586;23;20020;-92
2023/06/21 20:12:39;;;;;;;19.83;18.23;;;25.30;99.90;;;;;;6161556;23;20037;-91
2023/06/21 20:15:06;;;;;;;20.58;18.90;;;25.30;99.90;;;;;;6161806;23;20092;-91
2023/06/21 20:17:32;;;;;;;20.15;18.83;;;25.20;99.90;;;;;;6161115;23;20021;-90
2023/06/21 20:19:59;;;;;;;19.85;18.55;;;25.30;99.90;;;;;;6161428;23;20005;-91
2023/06/21 20:22:26;;;;;;;19.42;18.13;;;25.20;99.90;;;;;;6161462;23;20082;-91
2023/06/21 20:24:53;;;;;;;19.75;18.35;;;25.20;99.90;;;;;;6161528;23;20005;-91
2023/06/21 20:27:19;;;;;;;19.67;18.25;;;25.10;99.90;;;;;;6161540;23;20013;-93
2023/06/21 20:29:46;;;;;;;19.00;17.80;;;25.10;99.90;;;;;;6161437;23;20047;-91
2023/06/21 20:32:13;;;;;;;18.92;17.73;;;25.10;99.90;;;;;;6160982;23;20451;-92
2023/06/21 20:34:40;;;;;;;20.00;18.50;;;25.00;99.90;;;;;;6161075;23;20012;-93
2023/06/21 20:37:07;;;;;;;19.35;18.05;;;25.00;99.90;;;;;;6161696;23;20095;-90
2023/06/21 20:39:33;;;;;;;19.02;17.65;;;25.00;99.90;;;;;;6161147;23;20079;-91
2023/06/21 20:42:01;;;;;;;19.38;17.95;;;24.90;99.90;;;;;;6161589;23;20016;-92
2023/06/21 20:44:41;;;;;;;19.05;17.65;;;24.70;99.90;;;;;;6162636;23;20005;-93
2023/06/21 20:47:11;;;;;;;18.30;17.10;;;24.70;99.90;;;;;;6162931;23;20020;-91
2023/06/21 20:49:39;;;;;;;18.00;16.83;;;24.60;99.90;;;;;;6161092;23;20005;-91
2023/06/21 20:52:06;;;;;;;18.73;17.33;;;24.50;99.90;;;;;;6162122;23;20009;-91
2023/06/21 20:54:32;;;;;;;18.63;17.33;;;24.50;99.90;;;;;;6161301;23;20088;-91
2023/06/21 20:57:08;;;;;;;18.27;16.98;;;24.50;99.90;;;;;;6161497;23;20087;-91
2023/06/21 20:59:34;;;;;;;18.23;17.00;;;24.40;99.90;;;;;;6161428;23;20013;-91
2023/06/21 21:02:01;;;;;;;18.88;17.35;;;24.50;99.90;;;;;;6161800;23;20012;-91
2023/06/21 21:04:27;;;;;;;19.15;17.85;;;24.50;99.90;;;;;;6161317;23;20009;-92
2023/06/21 21:06:55;;;;;;;18.80;17.38;;;24.50;99.90;;;;;;6162308;23;20008;-92
2023/06/21 21:09:21;;;;;;;18.92;17.30;;;24.60;99.90;;;;;;6160965;23;20009;-92
2023/06/21 21:11:48;;;;;;;19.05;17.27;;;24.60;99.90;;;;;;6161732;23;20005;-90
2023/06/21 21:14:14;;;;;;;19.60;18.15;;;24.60;99.90;;;;;;6161767;23;20095;-91
2023/06/21 21:17:01;;;;;;;19.58;18.02;;;24.70;99.90;;;;;;6129013;23;20025;-92
2023/06/21 21:19:31;;;;;;;18.92;17.63;;;24.60;99.90;;;;;;6052479;23;20025;-92
2023/06/21 21:22:16;;;;;;;18.85;17.45;;;24.50;99.90;;;;;;6072834;23;20452;-92
2023/06/21 21:24:43;;;;;;;19.00;17.42;;;24.50;99.90;;;;;;6072158;23;20011;-91
2023/06/21 21:27:09;;;;;;;19.95;18.30;;;24.40;99.90;;;;;;6072264;23;20006;-92
2023/06/21 21:31:04;;;;;;;19.17;17.77;;;24.40;99.90;;;;;;6048757;23;20074;-92
2023/06/21 21:33:54;;;;;;;19.30;17.73;;;24.40;99.90;;;;;;6034450;23;20089;-91
2023/06/21 21:46:11;;;;;;;19.55;18.05;;;24.30;99.90;;;;;;6238033;23;20008;-92
2023/06/21 22:06:15;;;;;;;18.83;17.42;;;24.20;99.90;;;;;;6247728;23;20039;-92
2023/06/21 22:08:41;;;;;;;18.77;17.48;;;24.20;99.90;;;;;;6195759;23;20011;-92
2023/06/21 22:11:33;;;;;;;19.63;18.13;;;24.20;99.90;;;;;;6197785;23;19984;-91
2023/06/21 22:14:03;;;;;;;19.25;17.85;;;24.20;99.90;;;;;;6196594;23;20054;-92
2023/06/21 22:16:33;;;;;;;20.42;18.90;;;24.20;99.90;;;;;;6195659;23;20012;-92
2023/06/21 22:19:05;;;;;;;19.65;18.20;;;24.10;99.90;;;;;;6197501;23;20358;-91
2023/06/21 22:21:33;;;;;;;19.90;18.30;;;24.20;99.90;;;;;;6195849;23;20070;-91
2023/06/21 22:24:01;;;;;;;20.45;18.85;;;24.10;99.90;;;;;;6196005;23;20091;-92
2023/06/21 22:26:27;;;;;;;20.58;19.17;;;24.10;99.90;;;;;;6198206;23;20318;-92
2023/06/21 22:28:56;;;;;;;20.00;18.52;;;24.10;99.90;;;;;;6223188;23;20008;-92
2023/06/21 22:31:33;;;;;;;20.17;18.77;;;24.10;99.90;;;;;;6197921;23;20077;-93
2023/06/21 22:34:00;;;;;;;20.08;18.55;;;24.10;99.90;;;;;;6190306;23;20024;-92
2023/06/21 22:36:35;;;;;;;19.92;18.42;;;24.10;99.90;;;;;;6193804;23;20020;-93
2023/06/21 22:39:02;;;;;;;19.73;18.33;;;24.10;99.90;;;;;;6192901;23;20039;-93
2023/06/21 22:45:54;;;;;;;21.48;19.45;;;24.10;99.90;;;;;;6099157;23;20022;-93
2023/06/21 22:48:21;;;;;;;20.52;18.83;;;24.10;99.90;;;;;;6074123;23;20010;-91
2023/06/21 22:50:47;;;;;;;20.35;18.55;;;24.10;99.90;;;;;;6049980;23;20381;-91
2023/06/21 22:53:15;;;;;;;20.25;18.77;;;24.10;99.90;;;;;;6177791;23;20008;-92
2023/06/21 22:55:45;;;;;;;20.90;19.10;;;24.10;99.90;;;;;;6193117;23;20319;-91
2023/06/21 22:58:11;;;;;;;21.20;19.30;;;24.00;99.90;;;;;;6192664;23;20020;-91
2023/06/21 23:00:40;;;;;;;20.75;18.80;;;24.00;99.90;;;;;;6192380;23;20005;-92
2023/06/21 23:03:17;;;;;;;20.83;19.02;;;24.00;99.90;;;;;;6192523;23;20012;-93
2023/06/21 23:06:07;;;;;;;22.13;20.27;;;23.90;99.90;;;;;;6217789;23;20059;-93
2023/06/21 23:08:44;;;;;;;23.33;21.20;;;23.90;99.90;;;;;;6192885;23;20005;-92
2023/06/21 23:11:11;;;;;;;22.42;20.52;;;23.80;99.90;;;;;;6192292;23;20012;-92
2023/06/21 23:13:39;;;;;;;23.63;21.48;;;23.70;99.90;;;;;;6192640;23;20009;-92
2023/06/21 23:16:08;;;;;;;23.48;20.85;;;23.60;99.90;;;;;;6192954;23;20084;-91
2023/06/21 23:18:37;;;;;;;23.05;20.90;;;23.60;99.90;;;;;;6192303;23;20091;-90
2023/06/21 23:21:08;;;;;;;22.33;20.65;;;23.60;99.90;;;;;;6192080;23;20051;-91
2023/06/21 23:23:40;;;;;;;22.95;21.08;;;23.60;99.90;;;;;;6192239;23;20051;-92
2023/06/21 23:26:12;;;;;;;22.40;20.60;;;23.60;99.90;;;;;;6192553;23;20005;-91
2023/06/21 23:28:40;;;;;;;22.08;20.45;;;23.60;99.90;;;;;;6192178;23;20087;-92
2023/06/21 23:31:11;;;;;;;22.25;20.48;;;23.60;99.90;;;;;;6192023;23;20320;-91
2023/06/21 23:33:44;;;;;;;23.02;21.05;;;23.60;99.90;;;;;;6197389;23;20073;-92
2023/06/21 23:36:12;;;;;;;22.27;20.48;;;23.60;99.90;;;;;;6197318;23;20009;-92
2023/06/21 23:38:44;;;;;;;22.08;20.13;;;23.50;99.90;;;;;;6197288;23;20004;-92
2023/06/21 23:41:12;;;;;;;22.90;21.05;;;23.50;99.90;;;;;;6197652;23;20319;-92
2023/06/21 23:43:39;;;;;;;22.63;20.73;;;23.50;99.90;;;;;;6197366;23;20107;-90
2023/06/21 23:46:06;;;;;;;23.38;20.88;;;23.50;99.90;;;;;;6196956;23;20035;-92
2023/06/21 23:48:38;;;;;;;22.30;20.55;;;23.50;99.90;;;;;;6197735;23;20083;-92
2023/06/21 23:51:06;;;;;;;22.05;20.10;;;23.50;99.90;;;;;;6196894;23;20011;-92
2023/06/21 23:53:35;;;;;;;21.65;19.85;;;23.50;99.90;;;;;;6196924;23;20004;-91
2023/06/21 23:56:03;;;;;;;22.42;20.38;;;23.40;99.90;;;;;;6197033;23;20004;-92
2023/06/21 23:58:30;;;;;;;21.75;19.98;;;23.40;99.90;;;;;;6197716;23;20430;-92
